Gordon Heights, New York
Current Conditions -  °F | °C
As of 5:56 PM on Sunday 21 Dec 2014 (Local Time) from KHWV Reporting Station
Overcast Overcast  
Wind Chill: 30°   Ceiling: 700
Heat Index: 36°   Visibility: 10mi
Dew Point: 33°   Wind: 8mph
Humidity: 89%   Direction: 360°N
Pressure: 30.3"   Gusts: NA
Location:  40.8228°N, 72.9822°W
Report Text: KHWV 212256Z AUTO 36007KT 10SM OVC007 02/01 A3030 RMK AO2 CIG 005V010 SLP260 T00220006 TSNO
Loading
Personal Weather Stations






























Interactive Weather Map New forecast layout! Learn more

10-Day Weather Forecast

Advertisements
Track Severe Weather on mobile